createdAt,value
2022-08-31T00:01:04.589Z,0.98
2022-08-31T00:11:05.888Z,1.00
2022-08-31T00:21:07.796Z,1.00
2022-08-31T00:31:10.911Z,1.10
2022-08-31T00:41:12.314Z,1.10
2022-08-31T00:51:15.207Z,0.95
2022-08-31T01:01:20.180Z,1.17
2022-08-31T01:11:21.594Z,1.10
2022-08-31T01:21:22.873Z,0.90
2022-08-31T01:31:24.270Z,1.00
2022-08-31T01:41:25.560Z,1.00
2022-08-31T01:51:26.864Z,0.90
2022-08-31T02:01:32.670Z,0.95
2022-08-31T02:11:35.341Z,1.00
2022-08-31T02:21:36.933Z,1.00
2022-08-31T02:31:38.464Z,1.00
2022-08-31T02:41:39.805Z,0.90
2022-08-31T02:51:41.115Z,0.90
2022-08-31T03:01:42.544Z,0.98
2022-08-31T03:11:46.268Z,1.00
2022-08-31T03:21:47.542Z,1.02
2022-08-31T03:31:55.965Z,1.00
2022-08-31T03:41:57.260Z,1.00
2022-08-31T03:51:58.523Z,1.10
2022-08-31T04:01:59.898Z,1.00
2022-08-31T04:12:01.229Z,1.00
2022-08-31T04:22:02.692Z,0.98
2022-08-31T04:32:04.026Z,1.02
2022-08-31T04:42:05.334Z,1.00
2022-08-31T04:52:06.608Z,1.00
2022-08-31T05:02:07.930Z,0.90
2022-08-31T05:12:09.364Z,0.90
2022-08-31T05:22:10.675Z,0.98
2022-08-31T05:42:40.754Z,1.02
2022-08-31T05:52:42.133Z,0.88
2022-08-31T06:02:43.413Z,1.00
2022-08-31T06:12:44.658Z,0.85
2022-08-31T06:22:46.081Z,1.17
2022-08-31T06:32:47.365Z,0.90
2022-08-31T06:42:48.770Z,0.90
2022-08-31T06:52:50.104Z,0.90
2022-08-31T07:02:57.362Z,1.10
2022-08-31T07:12:59.418Z,0.88
2022-08-31T07:23:00.703Z,0.73
2022-08-31T07:33:02.142Z,0.95
2022-08-31T07:43:03.496Z,0.90
2022-08-31T07:53:05.109Z,0.80
2022-08-31T08:03:06.399Z,0.80
2022-08-31T08:13:07.697Z,0.80
2022-08-31T08:23:15.701Z,1.10
2022-08-31T08:33:21.665Z,1.20
2022-08-31T08:43:32.844Z,0.90
2022-08-31T08:53:37.661Z,1.00
2022-08-31T09:03:39.901Z,0.80
2022-08-31T09:13:56.303Z,1.00
2022-08-31T09:34:12.589Z,1.00
2022-08-31T09:44:20.544Z,0.80
2022-08-31T09:54:29.132Z,1.08
2022-08-31T10:04:37.591Z,1.00
2022-08-31T10:14:45.565Z,1.33
2022-08-31T10:24:53.606Z,1.48
2022-08-31T10:35:01.589Z,1.17
2022-08-31T10:45:09.565Z,0.98
2022-08-31T10:55:17.535Z,1.02
2022-08-31T11:05:25.554Z,0.90
2022-08-31T11:15:33.569Z,1.17
2022-08-31T11:25:42.604Z,1.20
2022-08-31T11:35:50.538Z,1.10
2022-08-31T11:45:58.596Z,1.20
2022-08-31T11:56:06.559Z,1.13
2022-08-31T12:06:15.607Z,1.02
2022-08-31T12:16:24.489Z,1.38
2022-08-31T12:26:32.575Z,1.48
2022-08-31T12:36:42.234Z,1.30
2022-08-31T12:46:49.661Z,1.60
2022-08-31T12:56:57.630Z,1.30
2022-08-31T13:07:05.619Z,1.50
2022-08-31T13:17:14.265Z,1.65
2022-08-31T13:27:22.608Z,1.67
2022-08-31T13:37:30.631Z,1.40
2022-08-31T13:47:57.500Z,1.33
2022-08-31T13:57:59.279Z,1.70
2022-08-31T14:08:00.532Z,1.60
2022-08-31T14:28:28.401Z,1.90
2022-08-31T15:09:51.618Z,1.80
2022-08-31T15:19:59.757Z,1.90
2022-08-31T15:30:08.717Z,1.80
2022-08-31T15:40:23.352Z,1.90
2022-08-31T15:50:26.163Z,1.95
2022-08-31T16:11:01.785Z,1.90
2022-08-31T16:21:03.233Z,1.75
2022-08-31T16:41:33.462Z,2.15
2022-08-31T16:51:34.953Z,1.90
2022-08-31T17:01:36.437Z,1.63
2022-08-31T17:11:48.161Z,2.17
2022-08-31T17:21:50.217Z,1.63
2022-08-31T17:31:51.684Z,1.67
2022-08-31T17:41:55.824Z,1.67
2022-08-31T17:52:12.235Z,1.67
2022-08-31T18:02:24.558Z,1.63
2022-08-31T18:22:54.708Z,1.58
2022-08-31T18:32:55.986Z,1.60
2022-08-31T18:42:57.504Z,1.48
2022-08-31T18:52:58.928Z,1.48
2022-08-31T19:03:00.223Z,1.40
2022-08-31T19:13:01.608Z,1.20
2022-08-31T19:23:03.001Z,1.38
2022-08-31T19:33:04.451Z,1.45
2022-08-31T19:53:27.764Z,1.50
2022-08-31T20:03:29.533Z,1.20
2022-08-31T20:13:30.843Z,1.20
2022-08-31T20:23:32.259Z,1.30
2022-08-31T20:33:33.693Z,1.10
2022-08-31T20:43:35.072Z,1.17
2022-08-31T20:53:42.750Z,1.10
2022-08-31T21:03:44.806Z,1.27
2022-08-31T21:13:47.801Z,1.20
2022-08-31T21:23:49.072Z,1.40
2022-08-31T21:33:50.459Z,1.33
2022-08-31T21:43:51.763Z,1.33
2022-08-31T21:53:53.036Z,1.45
2022-08-31T22:03:54.356Z,1.20
2022-08-31T22:13:58.911Z,1.38
2022-08-31T22:24:00.233Z,1.20
2022-08-31T22:34:01.530Z,1.30
2022-08-31T22:44:02.815Z,1.00
2022-08-31T22:54:04.101Z,1.10
2022-08-31T23:04:05.484Z,1.10
2022-08-31T23:14:07.719Z,0.98
2022-08-31T23:24:09.076Z,0.98
2022-08-31T23:34:10.367Z,1.20
2022-08-31T23:44:11.681Z,1.00
2022-08-31T23:54:12.989Z,1.25
